Time;durP1;ratioP1;P1;durP2;ratioP2;P2;SDS_P1;SDS_P2;PMS_P1;PMS_P2;Temp;Humidity;BMP_temperature;BMP_pressure;BME280_temperature;BME280_humidity;BME280_pressure;Samples;Min_cycle;Max_cycle;Signal;HPM_P1;HPM_P2
2022/09/11 00:01:32;;;;;;;64.20;26.20;;;14.50;99.90;;;;;;5027318;28;20029;-64
2022/09/11 00:03:58;;;;;;;65.38;24.20;;;14.40;99.90;;;;;;5022403;28;20132;-63
2022/09/11 00:06:25;;;;;;;67.88;24.52;;;14.30;99.90;;;;;;5024842;28;20029;-64
2022/09/11 00:08:59;;;;;;;59.42;23.90;;;14.20;99.90;;;;;;5024338;28;20037;-64
2022/09/11 00:11:26;;;;;;;63.50;22.85;;;14.00;99.90;;;;;;5018557;28;20366;-64
2022/09/11 00:13:53;;;;;;;55.13;22.73;;;13.90;99.90;;;;;;5020511;28;20585;-64
2022/09/11 00:16:23;;;;;;;61.15;24.60;;;13.80;99.90;;;;;;5020382;28;20097;-64
2022/09/11 00:18:49;;;;;;;57.30;23.00;;;13.70;99.90;;;;;;5025148;28;20041;-63
2022/09/11 00:21:16;;;;;;;54.25;23.15;;;13.60;99.90;;;;;;5025682;28;20037;-64
2022/09/11 00:23:42;;;;;;;54.60;23.58;;;13.50;99.90;;;;;;5028280;28;20032;-64
2022/09/11 00:26:08;;;;;;;54.88;23.63;;;13.40;99.90;;;;;;5028222;28;20669;-64
2022/09/11 00:28:35;;;;;;;51.47;22.77;;;13.30;99.90;;;;;;5032421;28;20729;-63
2022/09/11 00:31:11;;;;;;;48.78;21.52;;;13.30;99.90;;;;;;5028934;28;20029;-63
2022/09/11 00:33:38;;;;;;;57.42;23.17;;;13.30;99.90;;;;;;5048414;28;20028;-64
2022/09/11 00:36:07;;;;;;;51.67;21.95;;;13.20;99.90;;;;;;5030365;28;20021;-64
2022/09/11 00:38:35;;;;;;;57.97;24.73;;;13.20;99.90;;;;;;5030135;28;20514;-64
2022/09/11 00:41:03;;;;;;;64.43;24.15;;;13.30;99.90;;;;;;5024811;28;20712;-63
2022/09/11 00:43:48;;;;;;;59.33;23.25;;;13.40;99.90;;;;;;5029037;28;20276;-63
2022/09/11 00:46:15;;;;;;;60.28;24.77;;;13.50;99.90;;;;;;5026695;28;20076;-63
2022/09/11 00:48:41;;;;;;;55.45;23.67;;;13.60;99.90;;;;;;5027952;28;20037;-63
2022/09/11 00:51:07;;;;;;;53.67;23.40;;;13.60;99.90;;;;;;5027691;28;20021;-64
2022/09/11 00:53:35;;;;;;;55.47;23.20;;;13.40;99.90;;;;;;5028260;28;20033;-64
2022/09/11 00:56:06;;;;;;;53.00;23.33;;;13.20;99.90;;;;;;5019053;28;20030;-63
2022/09/11 00:58:36;;;;;;;54.55;23.60;;;13.10;99.90;;;;;;5026769;28;20029;-64
2022/09/11 01:01:03;;;;;;;56.40;22.45;;;13.00;99.90;;;;;;5027115;28;20107;-64
2022/09/11 01:03:30;;;;;;;56.10;23.20;;;12.90;99.90;;;;;;5025052;28;20125;-64
2022/09/11 01:05:57;;;;;;;63.67;23.42;;;12.80;99.90;;;;;;5029363;28;20036;-64
2022/09/11 01:08:23;;;;;;;53.15;23.88;;;12.70;99.90;;;;;;5028183;28;20361;-64
2022/09/11 01:11:25;;;;;;;55.40;23.48;;;12.70;99.90;;;;;;5025615;28;20122;-64
2022/09/11 01:14:15;;;;;;;52.17;22.25;;;12.70;99.90;;;;;;5029167;28;20009;-64
2022/09/11 01:17:14;;;;;;;59.90;23.93;;;12.70;99.90;;;;;;5022145;28;20393;-64
2022/09/11 01:20:04;;;;;;;52.00;22.77;;;12.70;99.90;;;;;;5025905;28;20037;-64
2022/09/11 01:22:51;;;;;;;49.58;21.33;;;12.60;99.90;;;;;;5025899;28;20527;-64
2022/09/11 01:25:32;;;;;;;117.03;24.08;;;12.60;99.90;;;;;;5026019;28;20072;-64
2022/09/11 01:27:59;;;;;;;;;;;12.80;99.90;;;;;;5024802;28;20025;-63
2022/09/11 01:30:37;;;;;;;211.43;31.33;;;12.80;99.90;;;;;;5026811;28;19920;-64
2022/09/11 01:33:35;;;;;;;52.17;21.90;;;12.70;99.90;;;;;;5017614;28;20477;-63
2022/09/11 01:36:10;;;;;;;55.42;22.10;;;12.60;99.90;;;;;;5018768;28;20046;-64
2022/09/11 01:38:47;;;;;;;44.17;21.02;;;12.60;99.90;;;;;;5041075;28;20067;-63
2022/09/11 01:41:19;;;;;;;45.90;20.08;;;12.60;99.90;;;;;;5028329;28;20025;-63
2022/09/11 01:44:05;;;;;;;48.55;20.42;;;12.70;99.90;;;;;;5024694;28;20510;-64
2022/09/11 01:46:36;;;;;;;62.05;24.48;;;12.80;99.90;;;;;;5025821;28;20051;-64
2022/09/11 01:49:09;;;;;;;69.45;25.88;;;13.00;99.90;;;;;;5034918;28;20072;-63
2022/09/11 01:51:37;;;;;;;65.65;26.13;;;13.40;99.90;;;;;;5027183;28;20034;-63
2022/09/11 01:54:10;;;;;;;68.47;27.08;;;13.60;99.90;;;;;;5029029;28;20427;-63
2022/09/11 01:56:41;;;;;;;73.30;28.23;;;13.80;99.90;;;;;;5026119;28;20117;-63
2022/09/11 01:59:10;;;;;;;69.55;26.67;;;13.80;99.90;;;;;;5026513;28;20034;-63
2022/09/11 02:01:41;;;;;;;69.63;26.83;;;13.80;99.90;;;;;;5026816;28;20057;-64
2022/09/11 02:04:16;;;;;;;71.57;26.65;;;13.70;99.90;;;;;;5026682;28;20716;-63
2022/09/11 02:06:49;;;;;;;70.28;26.70;;;13.60;99.90;;;;;;5037054;28;20060;-63
2022/09/11 02:09:20;;;;;;;68.13;25.85;;;13.70;99.90;;;;;;5024883;28;20057;-64
2022/09/11 02:11:50;;;;;;;68.32;26.83;;;13.80;99.90;;;;;;5023731;28;20079;-63
2022/09/11 02:14:31;;;;;;;75.60;29.25;;;14.00;99.90;;;;;;5024248;28;20053;-64
2022/09/11 02:17:11;;;;;;;77.47;26.80;;;14.10;99.90;;;;;;5017812;28;20073;-63
2022/09/11 02:19:39;;;;;;;76.55;27.33;;;14.10;99.90;;;;;;5018796;28;20022;-63
2022/09/11 02:22:04;;;;;;;76.43;28.55;;;14.30;99.90;;;;;;5026167;28;20153;-63
2022/09/11 02:24:30;;;;;;;72.68;27.67;;;14.30;99.90;;;;;;5026143;28;20370;-64
2022/09/11 02:27:06;;;;;;;82.70;29.02;;;14.30;99.90;;;;;;5025408;28;20030;-64
2022/09/11 02:29:33;;;;;;;74.72;28.10;;;14.30;99.90;;;;;;5025533;28;20030;-63
2022/09/11 02:31:59;;;;;;;79.63;28.52;;;14.30;99.90;;;;;;5025057;28;20022;-64
2022/09/11 02:34:28;;;;;;;75.43;27.48;;;14.40;99.90;;;;;;5026221;28;20075;-63
2022/09/11 02:37:15;;;;;;;76.78;29.10;;;14.30;99.90;;;;;;5028687;28;20026;-64
2022/09/11 02:39:59;;;;;;;81.93;29.45;;;14.30;99.90;;;;;;5022897;28;20572;-64
2022/09/11 02:43:02;;;;;;;77.55;28.25;;;14.40;99.90;;;;;;5019844;28;20444;-64
2022/09/11 02:45:56;;;;;;;71.10;27.02;;;14.40;99.90;;;;;;5026620;28;20410;-64
2022/09/11 02:48:44;;;;;;;79.30;29.50;;;14.30;99.90;;;;;;5013050;28;20042;-64
2022/09/11 02:51:37;;;;;;;72.50;27.83;;;14.30;99.90;;;;;;5019084;28;20565;-63
2022/09/11 02:54:21;;;;;;;80.03;27.77;;;14.20;99.90;;;;;;5023471;28;20433;-64
2022/09/11 02:57:25;;;;;;;70.85;26.17;;;14.20;99.90;;;;;;5022680;28;20074;-64
2022/09/11 02:59:59;;;;;;;54.70;23.55;;;14.10;99.90;;;;;;4998779;28;20048;-64
2022/09/11 03:02:27;;;;;;;63.42;26.45;;;14.10;99.90;;;;;;5020157;28;20034;-64
2022/09/11 03:04:53;;;;;;;68.55;25.35;;;14.10;99.90;;;;;;5025919;28;20040;-64
2022/09/11 03:07:18;;;;;;;72.70;27.67;;;14.10;99.90;;;;;;5020770;28;20029;-64
2022/09/11 03:09:44;;;;;;;72.22;27.52;;;14.20;99.90;;;;;;5022798;28;20068;-64
2022/09/11 03:12:10;;;;;;;70.22;26.92;;;14.30;99.90;;;;;;5034051;28;20022;-64
2022/09/11 03:14:37;;;;;;;69.53;26.27;;;14.40;99.90;;;;;;5043120;28;20028;-64
2022/09/11 03:17:03;;;;;;;67.65;25.95;;;14.30;99.90;;;;;;5027184;28;20067;-64
2022/09/11 03:19:29;;;;;;;77.32;28.65;;;14.40;99.90;;;;;;5032607;28;20055;-64
2022/09/11 03:21:55;;;;;;;70.45;29.00;;;14.50;99.90;;;;;;5022529;28;20472;-64
2022/09/11 03:24:20;;;;;;;76.53;28.23;;;14.50;99.90;;;;;;5024183;28;20037;-64
2022/09/11 03:26:46;;;;;;;79.68;28.88;;;14.50;99.90;;;;;;5025407;28;20036;-64
2022/09/11 03:29:12;;;;;;;76.95;28.90;;;14.50;99.90;;;;;;5018733;28;20444;-64
2022/09/11 03:31:37;;;;;;;74.18;28.80;;;14.50;99.90;;;;;;5024913;28;20029;-64
2022/09/11 03:34:03;;;;;;;80.65;29.48;;;14.50;99.90;;;;;;5019209;28;20026;-64
2022/09/11 03:36:28;;;;;;;70.45;27.10;;;14.40;99.90;;;;;;5022137;28;20421;-64
2022/09/11 03:38:55;;;;;;;81.57;27.90;;;14.40;99.90;;;;;;5031918;28;20037;-64
2022/09/11 03:41:21;;;;;;;76.68;28.02;;;14.60;99.90;;;;;;5026319;28;20028;-64
2022/09/11 03:43:47;;;;;;;73.78;27.42;;;14.60;99.90;;;;;;5027966;28;20034;-64
2022/09/11 03:46:12;;;;;;;65.63;26.17;;;14.60;99.90;;;;;;5018110;28;20033;-64
2022/09/11 03:48:38;;;;;;;65.68;26.45;;;14.50;99.90;;;;;;5024665;28;20129;-64
2022/09/11 03:51:04;;;;;;;93.10;27.38;;;14.50;99.90;;;;;;5039684;28;20090;-64
2022/09/11 03:53:31;;;;;;;67.88;26.42;;;14.50;99.90;;;;;;5024567;28;20032;-64
2022/09/11 03:55:59;;;;;;;67.80;26.67;;;14.50;99.90;;;;;;5027181;28;20017;-64
2022/09/11 03:58:25;;;;;;;64.57;26.60;;;14.50;99.90;;;;;;5023122;28;20025;-64
2022/09/11 04:00:51;;;;;;;70.20;26.58;;;14.60;99.90;;;;;;5025162;28;20086;-63
2022/09/11 04:03:16;;;;;;;68.38;27.77;;;14.70;99.90;;;;;;5024441;28;20032;-64
2022/09/11 04:05:43;;;;;;;67.20;26.55;;;14.60;99.90;;;;;;5022678;28;20030;-64
2022/09/11 04:08:12;;;;;;;64.53;26.17;;;14.70;99.90;;;;;;5024457;28;20339;-64
2022/09/11 04:10:38;;;;;;;77.43;27.58;;;14.70;99.90;;;;;;5019530;28;20164;-64
2022/09/11 04:13:04;;;;;;;73.82;27.95;;;14.60;99.90;;;;;;5018700;28;20471;-64
2022/09/11 04:15:31;;;;;;;82.85;29.35;;;14.60;99.90;;;;;;5025033;28;20025;-64
2022/09/11 04:17:57;;;;;;;99.25;31.73;;;14.70;99.90;;;;;;5022084;28;20524;-64
2022/09/11 04:20:23;;;;;;;89.28;29.40;;;14.70;99.90;;;;;;5020189;28;20136;-63
2022/09/11 04:22:49;;;;;;;85.53;30.35;;;14.70;99.90;;;;;;5022314;28;20029;-63
2022/09/11 04:25:15;;;;;;;85.65;29.38;;;14.80;99.90;;;;;;5022886;28;20501;-64
2022/09/11 04:27:41;;;;;;;94.65;31.23;;;14.90;99.90;;;;;;5027238;28;20136;-64
2022/09/11 04:30:07;;;;;;;94.82;31.35;;;14.80;99.90;;;;;;5022129;28;20041;-64
2022/09/11 04:32:33;;;;;;;98.38;33.58;;;14.80;99.90;;;;;;5024500;28;20025;-64
2022/09/11 04:35:00;;;;;;;105.93;33.88;;;14.70;99.90;;;;;;5022080;28;20026;-64
2022/09/11 04:37:27;;;;;;;103.72;32.70;;;14.70;99.90;;;;;;5027575;28;20017;-64
2022/09/11 04:39:53;;;;;;;98.10;33.67;;;14.60;99.90;;;;;;5026302;28;20022;-64
2022/09/11 04:42:19;;;;;;;101.47;33.08;;;14.60;99.90;;;;;;5022179;28;20293;-64
2022/09/11 04:44:45;;;;;;;103.88;33.15;;;14.60;99.90;;;;;;5025031;28;20040;-64
2022/09/11 04:47:11;;;;;;;111.63;35.67;;;14.70;99.90;;;;;;5016102;28;20387;-64
2022/09/11 04:49:37;;;;;;;121.53;37.78;;;14.80;99.90;;;;;;5023303;28;20171;-64
2022/09/11 04:52:04;;;;;;;113.40;35.55;;;14.80;99.90;;;;;;5023153;28;20106;-64
2022/09/11 04:54:32;;;;;;;112.38;35.75;;;14.70;99.90;;;;;;5024272;28;20022;-64
2022/09/11 04:57:00;;;;;;;120.97;35.72;;;14.70;99.90;;;;;;5023257;28;20168;-64
2022/09/11 04:59:25;;;;;;;123.40;36.20;;;14.60;99.90;;;;;;5024986;28;20021;-64
2022/09/11 05:01:53;;;;;;;125.40;37.33;;;14.60;99.90;;;;;;5027639;28;20037;-64
2022/09/11 05:04:19;;;;;;;106.65;34.80;;;14.70;99.90;;;;;;5027357;28;20021;-64
2022/09/11 05:06:47;;;;;;;118.80;36.05;;;14.70;99.90;;;;;;5027342;28;20036;-63
2022/09/11 05:09:14;;;;;;;110.40;35.70;;;14.80;99.90;;;;;;5026890;28;20030;-64
2022/09/11 05:11:40;;;;;;;109.22;34.78;;;14.80;99.90;;;;;;5024253;28;20489;-64
2022/09/11 05:14:06;;;;;;;112.90;35.22;;;14.90;99.90;;;;;;5019445;28;20136;-64
2022/09/11 05:16:35;;;;;;;110.75;35.92;;;14.90;99.90;;;;;;5026469;28;20033;-64
2022/09/11 05:19:03;;;;;;;112.30;35.40;;;14.90;99.90;;;;;;5029484;28;20025;-64
2022/09/11 05:21:29;;;;;;;117.18;35.65;;;14.90;99.90;;;;;;5017112;28;20409;-64
2022/09/11 05:23:57;;;;;;;116.57;36.70;;;15.00;99.90;;;;;;5027324;28;20039;-64
2022/09/11 05:26:25;;;;;;;110.70;36.03;;;15.00;99.90;;;;;;5027070;28;20025;-64
2022/09/11 05:28:59;;;;;;;113.80;35.45;;;15.00;99.90;;;;;;5021708;28;20401;-64
2022/09/11 05:31:25;;;;;;;109.78;36.03;;;15.00;99.90;;;;;;5023358;28;20030;-63
2022/09/11 05:33:54;;;;;;;119.07;37.17;;;14.90;99.90;;;;;;5026247;28;20615;-64
2022/09/11 05:36:20;;;;;;;128.40;36.17;;;14.90;99.90;;;;;;5024402;28;20084;-64
2022/09/11 05:38:46;;;;;;;115.93;36.88;;;15.00;99.90;;;;;;5023928;28;20025;-64
2022/09/11 05:41:12;;;;;;;108.40;34.90;;;15.00;99.90;;;;;;5024097;28;20034;-63
2022/09/11 05:43:39;;;;;;;114.90;35.58;;;14.90;99.90;;;;;;5027375;28;20041;-64
2022/09/11 05:46:06;;;;;;;119.10;35.67;;;14.90;99.90;;;;;;5028665;28;20060;-64
2022/09/11 05:48:33;;;;;;;110.35;34.53;;;14.90;99.90;;;;;;5027813;28;20033;-63
2022/09/11 05:51:01;;;;;;;112.82;36.33;;;14.90;99.90;;;;;;5027856;28;20033;-64
2022/09/11 05:53:30;;;;;;;119.30;34.83;;;14.90;99.90;;;;;;5024785;28;20030;-64
2022/09/11 05:55:56;;;;;;;116.10;35.13;;;15.00;99.90;;;;;;5049703;28;20024;-64
2022/09/11 05:58:22;;;;;;;117.65;36.67;;;15.00;99.90;;;;;;5030766;28;20044;-66
2022/09/11 06:00:48;;;;;;;127.07;38.08;;;15.00;99.90;;;;;;5028969;28;20130;-65
2022/09/11 06:03:15;;;;;;;127.53;37.90;;;15.00;99.90;;;;;;5026536;28;20021;-65
2022/09/11 06:05:41;;;;;;;121.05;35.38;;;15.10;99.90;;;;;;5026800;28;20029;-65
2022/09/11 06:08:08;;;;;;;119.50;36.67;;;15.10;99.90;;;;;;5026258;28;20527;-65
2022/09/11 06:10:46;;;;;;;119.65;36.20;;;15.10;99.90;;;;;;5027374;28;20026;-65
2022/09/11 06:13:12;;;;;;;119.00;34.08;;;15.10;99.90;;;;;;5025930;28;20474;-64
2022/09/11 06:15:45;;;;;;;121.22;35.58;;;15.20;99.90;;;;;;5023577;28;20026;-65
2022/09/11 06:18:11;;;;;;;115.35;35.70;;;15.20;99.90;;;;;;5026268;28;20021;-65
2022/09/11 06:20:37;;;;;;;107.07;33.17;;;15.30;99.90;;;;;;5027203;28;20054;-65
2022/09/11 06:23:02;;;;;;;106.70;34.75;;;15.20;99.90;;;;;;5025924;28;20034;-65
2022/09/11 06:25:28;;;;;;;114.03;34.75;;;15.20;99.90;;;;;;5026738;28;20424;-65
2022/09/11 06:27:54;;;;;;;105.28;31.90;;;15.30;99.90;;;;;;5026957;28;20033;-65
2022/09/11 06:30:20;;;;;;;105.47;33.90;;;15.20;99.90;;;;;;5027019;28;20115;-66
2022/09/11 06:32:50;;;;;;;117.43;34.83;;;15.20;99.90;;;;;;5027705;28;20049;-64
2022/09/11 06:35:16;;;;;;;105.63;34.05;;;15.20;99.90;;;;;;5025516;28;20018;-65
2022/09/11 06:37:42;;;;;;;109.28;34.00;;;15.30;99.90;;;;;;5028833;28;20021;-65
2022/09/11 06:40:08;;;;;;;106.45;33.80;;;15.20;99.90;;;;;;5027524;28;20036;-65
2022/09/11 06:42:33;;;;;;;123.82;36.40;;;15.30;99.90;;;;;;5023245;28;20029;-65
2022/09/11 06:44:59;;;;;;;126.93;37.67;;;15.30;99.90;;;;;;5025359;28;20033;-65
2022/09/11 06:47:24;;;;;;;121.53;35.10;;;15.40;99.90;;;;;;5027495;28;20018;-64
2022/09/11 06:49:50;;;;;;;118.53;35.78;;;15.40;99.90;;;;;;5027113;28;20448;-64
2022/09/11 06:52:16;;;;;;;128.80;36.75;;;15.30;99.90;;;;;;5024594;28;20089;-64
2022/09/11 06:54:41;;;;;;;138.65;38.95;;;15.30;99.90;;;;;;5040083;28;20022;-64
2022/09/11 06:57:07;;;;;;;125.40;37.15;;;15.30;99.90;;;;;;5042364;28;20034;-65
2022/09/11 06:59:33;;;;;;;119.93;36.67;;;15.40;99.90;;;;;;5019794;28;20048;-64
2022/09/11 07:01:59;;;;;;;128.35;38.17;;;15.40;99.90;;;;;;5025637;28;20040;-64
2022/09/11 07:04:25;;;;;;;120.03;36.15;;;15.50;99.90;;;;;;5028069;28;20108;-65
2022/09/11 07:06:51;;;;;;;110.47;34.03;;;15.60;99.90;;;;;;5026937;28;20116;-65
2022/09/11 07:09:16;;;;;;;95.78;32.90;;;15.70;99.90;;;;;;5024462;28;20032;-65
2022/09/11 07:11:45;;;;;;;97.90;31.67;;;15.60;99.90;;;;;;5018870;28;20504;-65
2022/09/11 07:14:11;;;;;;;96.22;32.90;;;15.60;99.90;;;;;;5024403;28;20354;-66
2022/09/11 07:16:37;;;;;;;88.30;31.27;;;15.70;99.90;;;;;;5026373;28;20024;-65
2022/09/11 07:19:03;;;;;;;98.47;31.17;;;15.80;99.90;;;;;;5029257;28;20044;-66
2022/09/11 07:21:30;;;;;;;92.55;31.52;;;15.90;99.90;;;;;;5023914;28;20443;-66
2022/09/11 07:23:58;;;;;;;84.72;30.58;;;15.90;99.90;;;;;;5026114;28;20467;-66
2022/09/11 07:26:27;;;;;;;82.30;29.63;;;16.00;99.90;;;;;;5025590;28;20067;-66
2022/09/11 07:28:54;;;;;;;86.28;31.23;;;16.00;99.90;;;;;;5026214;28;20132;-66
2022/09/11 07:31:23;;;;;;;79.32;30.52;;;16.10;99.90;;;;;;5027027;28;20037;-64
2022/09/11 07:33:51;;;;;;;80.03;30.05;;;16.10;99.90;;;;;;5024886;28;20052;-63
2022/09/11 07:36:25;;;;;;;77.43;30.55;;;16.10;99.90;;;;;;5025613;28;20053;-64
2022/09/11 07:38:53;;;;;;;73.00;28.60;;;16.00;99.90;;;;;;5017542;28;20063;-64
2022/09/11 07:41:21;;;;;;;72.95;29.92;;;16.10;99.90;;;;;;5025053;28;20026;-64
2022/09/11 07:43:55;;;;;;;70.25;27.75;;;16.20;99.90;;;;;;5028339;28;20112;-64
2022/09/11 07:46:21;;;;;;;71.60;29.70;;;16.20;99.90;;;;;;5024417;28;20029;-64
2022/09/11 07:48:47;;;;;;;69.22;28.10;;;16.20;99.90;;;;;;5028550;28;20737;-64
2022/09/11 07:51:15;;;;;;;72.95;28.70;;;16.20;99.90;;;;;;5028294;28;20349;-64
2022/09/11 07:53:43;;;;;;;72.85;27.95;;;16.20;99.90;;;;;;5027358;28;20112;-65
2022/09/11 07:56:14;;;;;;;73.70;27.83;;;16.10;99.90;;;;;;5023695;28;20099;-65
2022/09/11 07:58:41;;;;;;;68.30;28.48;;;16.10;99.90;;;;;;5029589;28;20021;-65
2022/09/11 08:01:15;;;;;;;65.13;26.73;;;16.20;99.90;;;;;;5027055;28;20025;-65
2022/09/11 08:03:44;;;;;;;67.20;26.52;;;16.30;99.90;;;;;;5026923;28;20071;-64
2022/09/11 08:06:13;;;;;;;67.20;27.90;;;16.40;99.90;;;;;;5026551;28;20051;-63
2022/09/11 08:08:40;;;;;;;61.17;25.75;;;16.60;99.90;;;;;;5027049;28;20044;-65
2022/09/11 08:11:09;;;;;;;64.38;26.10;;;16.60;99.90;;;;;;5022957;28;20497;-65
2022/09/11 08:13:35;;;;;;;61.33;23.70;;;16.70;99.90;;;;;;5023282;28;20055;-64
2022/09/11 08:16:01;;;;;;;57.80;24.15;;;16.80;99.90;;;;;;5023973;28;20484;-64
2022/09/11 08:18:27;;;;;;;49.85;22.15;;;16.90;99.90;;;;;;5024911;28;20496;-64
2022/09/11 08:21:00;;;;;;;50.67;22.35;;;17.10;99.90;;;;;;5026559;28;20069;-65
2022/09/11 08:23:26;;;;;;;52.08;22.83;;;17.20;99.90;;;;;;5026701;28;20026;-65
2022/09/11 08:25:52;;;;;;;48.97;22.27;;;17.30;99.90;;;;;;5026675;28;20377;-65
2022/09/11 08:28:18;;;;;;;43.53;20.25;;;17.30;99.90;;;;;;5022706;28;20041;-65
2022/09/11 08:30:44;;;;;;;51.65;21.83;;;17.20;99.90;;;;;;5025085;28;20029;-65
2022/09/11 08:33:11;;;;;;;45.38;19.80;;;17.30;99.90;;;;;;5026609;28;20123;-65
2022/09/11 08:35:37;;;;;;;49.20;21.48;;;17.30;99.90;;;;;;5030162;28;20026;-65
2022/09/11 08:38:02;;;;;;;49.15;21.63;;;17.40;99.90;;;;;;5031975;28;20140;-65
2022/09/11 08:40:30;;;;;;;46.95;21.80;;;17.80;99.90;;;;;;5032719;28;20025;-65
2022/09/11 08:43:00;;;;;;;49.20;21.77;;;18.10;99.90;;;;;;5031399;28;20033;-65
2022/09/11 08:45:33;;;;;;;52.10;23.20;;;18.20;99.90;;;;;;5030293;28;20041;-65
2022/09/11 08:48:00;;;;;;;58.42;25.52;;;17.80;99.90;;;;;;5029091;28;20064;-64
2022/09/11 08:50:32;;;;;;;68.35;26.23;;;17.50;99.90;;;;;;5028029;28;20021;-64
2022/09/11 08:53:01;;;;;;;69.82;27.40;;;17.20;99.90;;;;;;5040008;28;20580;-64
2022/09/11 08:55:42;;;;;;;69.40;27.23;;;17.10;99.90;;;;;;5026276;28;20104;-64
2022/09/11 08:58:26;;;;;;;65.68;24.67;;;17.00;99.90;;;;;;5027376;28;20021;-64
2022/09/11 09:01:25;;;;;;;66.35;25.42;;;17.10;99.90;;;;;;5029787;28;20507;-64
2022/09/11 09:04:01;;;;;;;63.58;26.75;;;17.40;99.90;;;;;;5014721;28;20548;-65
2022/09/11 09:06:45;;;;;;;63.13;26.38;;;17.80;99.90;;;;;;5027656;28;20037;-66
2022/09/11 09:09:50;;;;;;;62.47;24.60;;;17.80;99.90;;;;;;5024677;28;20030;-66
2022/09/11 09:12:49;;;;;;;43.30;21.02;;;18.50;99.90;;;;;;5012168;28;20604;-66
2022/09/11 09:15:41;;;;;;;43.75;20.38;;;18.40;99.90;;;;;;5019491;28;20037;-66
2022/09/11 09:18:26;;;;;;;53.65;22.83;;;18.20;99.90;;;;;;5023618;28;20780;-66
2022/09/11 09:21:19;;;;;;;53.80;22.55;;;18.20;99.90;;;;;;5018755;28;20398;-66
2022/09/11 09:23:51;;;;;;;52.17;23.02;;;18.10;99.90;;;;;;5031425;28;20037;-66
2022/09/11 09:26:18;;;;;;;56.58;24.42;;;17.40;99.90;;;;;;5026526;28;20068;-66
2022/09/11 09:28:50;;;;;;;60.90;24.73;;;17.60;99.90;;;;;;5029076;28;20425;-66
2022/09/11 09:31:21;;;;;;;49.10;21.35;;;17.70;99.90;;;;;;5029103;28;20033;-65
2022/09/11 09:33:59;;;;;;;52.45;22.95;;;18.00;99.90;;;;;;5029129;28;20032;-65
2022/09/11 09:36:36;;;;;;;56.92;24.75;;;18.00;99.90;;;;;;5021245;28;20049;-65
2022/09/11 09:39:14;;;;;;;54.85;25.33;;;18.10;99.90;;;;;;5023297;28;20128;-65
2022/09/11 09:41:55;;;;;;;57.92;24.02;;;18.00;99.90;;;;;;5022714;28;20029;-65
2022/09/11 09:44:50;;;;;;;59.95;26.58;;;17.90;99.90;;;;;;5027010;28;20028;-65
2022/09/11 09:47:17;;;;;;;56.80;25.40;;;17.80;99.90;;;;;;5021832;28;20480;-66
2022/09/11 09:49:43;;;;;;;58.25;25.35;;;17.80;99.90;;;;;;5026822;28;20064;-66
2022/09/11 09:52:18;;;;;;;48.13;22.63;;;17.70;99.90;;;;;;5021183;28;20472;-66
2022/09/11 09:55:02;;;;;;;46.90;21.42;;;17.80;99.90;;;;;;5024985;28;20034;-66
2022/09/11 09:57:35;;;;;;;44.83;20.67;;;18.20;99.90;;;;;;5023464;28;20431;-66
2022/09/11 10:00:13;;;;;;;34.00;17.10;;;18.30;99.90;;;;;;5027166;28;20029;-66
2022/09/11 10:02:40;;;;;;;37.15;18.13;;;18.60;99.90;;;;;;5028967;28;20491;-66
2022/09/11 10:05:18;;;;;;;35.30;17.75;;;18.60;99.90;;;;;;5025465;28;20033;-66
2022/09/11 10:07:56;;;;;;;38.83;18.50;;;18.70;99.90;;;;;;5023766;28;20033;-66
2022/09/11 10:10:25;;;;;;;37.15;17.60;;;18.50;99.90;;;;;;5024602;28;20484;-66
2022/09/11 10:12:52;;;;;;;33.67;16.67;;;18.50;99.90;;;;;;5024523;28;20028;-66
2022/09/11 10:15:21;;;;;;;40.45;20.45;;;18.60;99.90;;;;;;5026074;28;20025;-65
2022/09/11 10:17:48;;;;;;;38.03;17.52;;;18.20;99.90;;;;;;5022094;28;20026;-65
2022/09/11 10:20:17;;;;;;;31.83;16.33;;;17.90;99.90;;;;;;5024861;28;20120;-66
2022/09/11 10:22:44;;;;;;;32.95;16.65;;;18.20;99.90;;;;;;5022491;28;20029;-67
2022/09/11 10:25:20;;;;;;;29.98;15.30;;;18.70;99.90;;;;;;5020729;28;20029;-66
2022/09/11 10:28:10;;;;;;;30.02;14.70;;;19.20;99.90;;;;;;5022105;28;20022;-66
2022/09/11 10:30:46;;;;;;;30.05;15.05;;;19.10;99.90;;;;;;5028469;28;20118;-66
2022/09/11 10:33:35;;;;;;;27.70;14.15;;;19.90;99.90;;;;;;5029257;28;20040;-66
2022/09/11 10:36:03;;;;;;;29.23;14.52;;;20.30;99.90;;;;;;5032142;28;20489;-66
2022/09/11 10:38:44;;;;;;;30.02;15.02;;;20.10;99.90;;;;;;5035093;28;20021;-67
2022/09/11 10:41:13;;;;;;;29.95;15.48;;;20.40;99.90;;;;;;5027948;28;20122;-65
2022/09/11 10:43:51;;;;;;;29.98;15.77;;;20.40;99.90;;;;;;5029873;28;20033;-64
2022/09/11 10:46:33;;;;;;;30.65;15.70;;;20.40;99.90;;;;;;5027119;28;20028;-64
2022/09/11 10:49:02;;;;;;;27.77;15.02;;;20.40;99.90;;;;;;5026558;28;20136;-65
2022/09/11 10:51:37;;;;;;;28.60;14.30;;;20.40;99.90;;;;;;5027674;28;20074;-64
2022/09/11 10:54:30;;;;;;;29.23;17.25;;;20.80;99.90;;;;;;5025881;28;20457;-64
2022/09/11 10:57:15;;;;;;;28.80;15.05;;;20.40;99.90;;;;;;5041568;28;20588;-64
2022/09/11 10:59:54;;;;;;;27.40;14.85;;;20.20;99.90;;;;;;5024799;28;20027;-64
2022/09/11 11:02:28;;;;;;;26.33;14.52;;;21.40;99.90;;;;;;5018571;28;20025;-64
2022/09/11 11:04:56;;;;;;;28.70;15.73;;;21.80;99.90;;;;;;5026294;28;20033;-64
2022/09/11 11:07:56;;;;;;;30.38;16.67;;;21.40;99.90;;;;;;5024899;28;20033;-64
2022/09/11 11:10:31;;;;;;;;;;;20.60;99.90;;;;;;5022674;28;20311;-64
2022/09/11 11:13:21;;;;;;;28.60;15.15;;;20.90;99.90;;;;;;5019028;28;19931;-64
2022/09/11 11:15:56;;;;;;;29.20;15.35;;;21.60;99.90;;;;;;5039147;28;20076;-64
2022/09/11 11:18:34;;;;;;;27.05;15.13;;;23.10;99.90;;;;;;5037474;28;20108;-64
2022/09/11 11:21:08;;;;;;;25.08;14.40;;;24.30;99.90;;;;;;5025470;28;20080;-64
2022/09/11 11:24:00;;;;;;;27.25;16.15;;;24.70;99.90;;;;;;5014749;28;20500;-64
2022/09/11 11:27:10;;;;;;;25.95;14.57;;;23.50;99.90;;;;;;5021264;28;20037;-63
2022/09/11 11:30:16;;;;;;;25.95;13.73;;;22.30;99.90;;;;;;5020218;28;20041;-64
2022/09/11 11:32:50;;;;;;;25.48;13.20;;;22.10;99.90;;;;;;5022799;28;20063;-64
2022/09/11 11:35:22;;;;;;;24.92;12.95;;;22.80;99.90;;;;;;5023294;28;20481;-64
2022/09/11 11:37:52;;;;;;;25.73;15.25;;;24.30;99.90;;;;;;5019987;28;20096;-64
2022/09/11 11:40:26;;;;;;;28.45;15.82;;;22.80;99.90;;;;;;5023600;28;20615;-64
2022/09/11 11:43:00;;;;;;;27.98;15.70;;;21.40;99.90;;;;;;5005917;28;20041;-64
2022/09/11 11:45:36;;;;;;;25.75;14.15;;;21.40;99.90;;;;;;5022428;28;20119;-63
2022/09/11 11:48:11;;;;;;;28.20;14.98;;;21.10;99.90;;;;;;5005642;28;20483;-64
2022/09/11 11:50:42;;;;;;;27.85;17.45;;;21.00;99.90;;;;;;5016399;28;20652;-64
2022/09/11 11:53:16;;;;;;;30.20;15.55;;;20.40;99.90;;;;;;5006588;28;20041;-64
2022/09/11 11:55:50;;;;;;;26.15;15.35;;;20.20;99.90;;;;;;5023037;28;20017;-63
2022/09/11 11:58:46;;;;;;;27.75;15.10;;;21.50;99.90;;;;;;5023465;28;20032;-64
2022/09/11 12:01:30;;;;;;;25.55;14.50;;;21.90;99.90;;;;;;5021497;28;20511;-64
2022/09/11 12:04:15;;;;;;;28.50;14.88;;;21.60;99.90;;;;;;5017679;28;20029;-64
2022/09/11 12:06:41;;;;;;;26.20;15.65;;;21.70;99.90;;;;;;5022131;28;20029;-64
2022/09/11 12:09:11;;;;;;;26.88;15.15;;;21.00;99.90;;;;;;5027658;28;20068;-64
2022/09/11 12:11:38;;;;;;;27.17;15.10;;;20.90;99.90;;;;;;5023069;28;20033;-64
2022/09/11 12:14:05;;;;;;;27.35;15.45;;;20.80;99.90;;;;;;5028437;28;20056;-64
2022/09/11 12:16:33;;;;;;;29.02;15.10;;;21.10;99.90;;;;;;5023321;28;20026;-64
2022/09/11 12:19:19;;;;;;;33.17;18.63;;;21.30;99.90;;;;;;5028144;28;20022;-64
2022/09/11 12:22:04;;;;;;;35.05;18.92;;;20.80;99.90;;;;;;5021525;28;20527;-64
2022/09/11 12:24:51;;;;;;;35.35;17.67;;;19.80;99.90;;;;;;5025838;28;20540;-64
2022/09/11 12:28:07;;;;;;;28.98;16.23;;;19.90;99.90;;;;;;5037811;28;20025;-64
2022/09/11 12:30:54;;;;;;;32.78;16.17;;;20.50;99.90;;;;;;5021706;28;20564;-63
2022/09/11 12:33:53;;;;;;;27.98;15.30;;;19.80;99.90;;;;;;5022769;28;20408;-64
2022/09/11 12:36:57;;;;;;;31.45;15.65;;;20.10;99.90;;;;;;5016450;28;20054;-64
2022/09/11 12:39:31;;;;;;;27.50;15.63;;;20.30;99.90;;;;;;5018840;28;20045;-63
2022/09/11 12:42:22;;;;;;;27.67;14.55;;;20.90;99.90;;;;;;5025246;28;20025;-64
2022/09/11 12:44:48;;;;;;;24.13;13.85;;;22.50;99.90;;;;;;5023257;28;20028;-64
2022/09/11 12:47:20;;;;;;;23.48;13.52;;;23.90;99.90;;;;;;5038608;28;20026;-64
2022/09/11 12:50:05;;;;;;;23.35;13.35;;;25.90;99.90;;;;;;5024987;28;20193;-64
2022/09/11 12:52:50;;;;;;;20.63;12.75;;;24.60;99.90;;;;;;5024027;28;20452;-64